Time;durP1;ratioP1;P1;durP2;ratioP2;P2;SDS_P1;SDS_P2;PMS_P1;PMS_P2;Temp;Humidity;BMP_temperature;BMP_pressure;BME280_temperature;BME280_humidity;BME280_pressure;Samples;Min_cycle;Max_cycle;Signal;HPM_P1;HPM_P2
2021/08/03 00:00:06;;;;;;;6.53;3.65;;;12.70;99.90;;;;;;4955235;29;20031;-71
2021/08/03 00:02:34;;;;;;;6.10;3.50;;;12.60;99.90;;;;;;4954704;29;20035;-70
2021/08/03 00:05:02;;;;;;;8.25;4.07;;;12.50;99.90;;;;;;4937342;29;20023;-70
2021/08/03 00:07:31;;;;;;;3.65;3.03;;;12.50;99.90;;;;;;4937299;29;20039;-70
2021/08/03 00:09:56;;;;;;;4.78;2.83;;;12.50;99.90;;;;;;4955023;29;20372;-73
2021/08/03 00:12:24;;;;;;;5.60;2.80;;;12.40;99.90;;;;;;4953898;29;20098;-70
2021/08/03 00:14:52;;;;;;;5.28;3.13;;;12.40;99.90;;;;;;4954948;29;20027;-69
2021/08/03 00:17:24;;;;;;;6.43;2.58;;;12.40;99.90;;;;;;4954685;29;20023;-70
2021/08/03 00:19:50;;;;;;;3.78;2.45;;;12.40;99.90;;;;;;4954041;29;20567;-69
2021/08/03 00:22:16;;;;;;;2.75;2.22;;;12.40;99.90;;;;;;4954615;29;20550;-73
2021/08/03 00:24:42;;;;;;;2.25;2.05;;;12.50;99.90;;;;;;4954732;29;20027;-70
2021/08/03 00:27:08;;;;;;;3.05;2.25;;;12.50;99.90;;;;;;4954216;29;20090;-70
2021/08/03 00:29:36;;;;;;;6.38;2.33;;;12.50;99.90;;;;;;4954556;29;20027;-70
2021/08/03 00:32:02;;;;;;;3.63;2.58;;;12.50;99.90;;;;;;4954952;29;20031;-70
2021/08/03 00:34:28;;;;;;;3.72;2.70;;;12.50;99.90;;;;;;4953871;29;20030;-70
2021/08/03 00:36:54;;;;;;;5.38;2.63;;;12.40;99.90;;;;;;4954897;29;20028;-70
2021/08/03 00:39:22;;;;;;;2.55;2.33;;;12.40;99.90;;;;;;4953710;29;20098;-69
2021/08/03 00:42:01;;;;;;;4.85;2.53;;;12.40;99.90;;;;;;4954636;29;20031;-70
2021/08/03 00:44:58;;;;;;;4.72;2.33;;;12.40;99.90;;;;;;4954426;29;20507;-70
2021/08/03 00:47:24;;;;;;;3.67;2.25;;;12.40;99.90;;;;;;4953139;29;20099;-70
2021/08/03 00:49:49;;;;;;;6.32;2.63;;;12.40;99.90;;;;;;4954532;29;20027;-70
2021/08/03 00:52:16;;;;;;;6.22;3.50;;;12.30;99.90;;;;;;4954389;29;20074;-69
2021/08/03 00:54:42;;;;;;;4.97;3.50;;;12.40;99.90;;;;;;4953938;29;20026;-69
2021/08/03 00:57:09;;;;;;;6.03;2.78;;;12.40;99.90;;;;;;4954803;29;20032;-70
2021/08/03 00:59:36;;;;;;;3.65;2.30;;;12.40;99.90;;;;;;4954116;29;20023;-71
2021/08/03 01:02:03;;;;;;;4.57;2.42;;;12.40;99.90;;;;;;4953691;29;20447;-70
2021/08/03 01:04:28;;;;;;;3.58;2.55;;;12.40;99.90;;;;;;4954055;29;20023;-70
2021/08/03 01:07:21;;;;;;;3.35;2.40;;;12.40;99.90;;;;;;4956898;28;20061;-70
2021/08/03 01:10:16;;;;;;;4.53;2.70;;;12.50;99.90;;;;;;4958192;29;20499;-69
2021/08/03 01:12:52;;;;;;;3.70;2.90;;;12.40;99.90;;;;;;4941055;29;20024;-69
2021/08/03 01:15:55;;;;;;;5.90;2.50;;;12.40;99.90;;;;;;4957153;29;20027;-70
2021/08/03 01:18:31;;;;;;;4.43;2.60;;;12.40;99.90;;;;;;4918344;29;20067;-70
2021/08/03 01:21:28;;;;;;;3.13;2.22;;;12.40;99.90;;;;;;4957832;29;20023;-70
2021/08/03 01:24:38;;;;;;;5.63;2.75;;;12.40;99.90;;;;;;4957934;29;20031;-69
2021/08/03 01:27:24;;;;;;;6.53;3.25;;;12.30;99.90;;;;;;4949637;29;20059;-72
2021/08/03 01:29:50;;;;;;;3.78;2.50;;;12.30;99.90;;;;;;4956184;28;20045;-70
2021/08/03 01:32:22;;;;;;;3.58;2.80;;;12.30;99.90;;;;;;4957510;29;20032;-70
2021/08/03 01:34:49;;;;;;;5.65;2.70;;;12.30;99.90;;;;;;4957541;29;20026;-72
2021/08/03 01:37:20;;;;;;;7.50;3.03;;;12.20;99.90;;;;;;4956664;29;20038;-75
2021/08/03 01:39:49;;;;;;;;;;;12.20;99.90;;;;;;4957781;29;20447;-70
2021/08/03 01:42:17;;;;;;;3.22;2.20;;;12.20;99.90;;;;;;4957185;29;19906;-72
2021/08/03 01:44:43;;;;;;;4.53;2.42;;;12.20;99.90;;;;;;4956889;29;20026;-69
2021/08/03 01:47:09;;;;;;;3.42;1.67;;;12.10;99.90;;;;;;4957359;29;20050;-69
2021/08/03 01:49:39;;;;;;;5.00;2.20;;;12.10;99.90;;;;;;4956248;29;20023;-69
2021/08/03 01:52:07;;;;;;;3.38;1.90;;;12.10;99.90;;;;;;4957339;29;20034;-69
2021/08/03 01:54:34;;;;;;;4.00;1.40;;;12.10;99.90;;;;;;4957006;29;20024;-73
2021/08/03 01:57:00;;;;;;;3.78;1.52;;;12.00;99.90;;;;;;4956643;29;20027;-69
2021/08/03 01:59:27;;;;;;;3.25;1.70;;;12.00;99.90;;;;;;4956982;29;20019;-69
2021/08/03 02:01:53;;;;;;;1.70;1.60;;;12.00;99.90;;;;;;4957117;29;20047;-70
2021/08/03 02:04:20;;;;;;;2.25;1.70;;;11.90;99.90;;;;;;4956064;29;20480;-69
2021/08/03 02:06:47;;;;;;;2.28;2.08;;;11.90;99.90;;;;;;4956847;29;20031;-71
2021/08/03 02:09:14;;;;;;;3.55;1.98;;;11.90;99.90;;;;;;4956882;29;20376;-69
2021/08/03 02:11:40;;;;;;;3.83;2.50;;;11.90;99.90;;;;;;4938978;29;20424;-73
2021/08/03 02:14:06;;;;;;;4.35;2.10;;;11.90;99.90;;;;;;4956959;29;20023;-69
2021/08/03 02:16:33;;;;;;;4.82;1.95;;;11.80;99.90;;;;;;4956404;28;20135;-70
2021/08/03 02:19:00;;;;;;;3.15;2.25;;;11.80;99.90;;;;;;4956390;29;20031;-69
2021/08/03 02:21:26;;;;;;;5.97;1.85;;;11.80;99.90;;;;;;4956438;29;20015;-70
2021/08/03 02:23:52;;;;;;;5.55;2.63;;;11.70;99.90;;;;;;4956924;29;20131;-69
2021/08/03 02:26:18;;;;;;;2.72;1.60;;;11.70;99.90;;;;;;4955882;29;20090;-71
2021/08/03 02:28:44;;;;;;;2.25;2.05;;;11.80;99.90;;;;;;4939382;29;20023;-69
2021/08/03 02:31:42;;;;;;;3.67;2.33;;;11.80;99.90;;;;;;4956843;28;20036;-70
2021/08/03 02:34:30;;;;;;;2.20;2.00;;;11.80;99.90;;;;;;4925382;29;20035;-70
2021/08/03 02:37:01;;;;;;;4.88;2.65;;;11.80;99.90;;;;;;4956733;29;20059;-69
2021/08/03 02:39:28;;;;;;;3.92;2.00;;;11.80;99.90;;;;;;4943148;29;20020;-69
2021/08/03 02:41:55;;;;;;;4.55;1.77;;;11.80;99.90;;;;;;4955237;28;20055;-69
2021/08/03 02:44:22;;;;;;;4.82;2.30;;;11.80;99.90;;;;;;4954914;29;20046;-71
2021/08/03 02:46:53;;;;;;;2.20;1.90;;;11.70;99.90;;;;;;4954328;29;20066;-71
2021/08/03 02:49:28;;;;;;;4.50;1.73;;;11.70;99.90;;;;;;4954843;29;20023;-74
2021/08/03 02:51:54;;;;;;;4.20;1.83;;;11.70;99.90;;;;;;4942868;29;20016;-75
2021/08/03 02:54:25;;;;;;;2.63;1.95;;;11.60;99.90;;;;;;4953971;29;20457;-72
2021/08/03 02:56:53;;;;;;;5.77;2.17;;;11.60;99.90;;;;;;4946119;29;20038;-71
2021/08/03 02:59:20;;;;;;;2.75;2.03;;;11.60;99.90;;;;;;4955015;29;20115;-70
2021/08/03 03:01:46;;;;;;;2.72;2.13;;;11.60;99.90;;;;;;4938037;29;20087;-70
2021/08/03 03:04:20;;;;;;;3.72;2.03;;;11.60;99.90;;;;;;4955722;29;20067;-70
2021/08/03 03:06:52;;;;;;;3.30;1.92;;;11.60;99.90;;;;;;4956167;29;20070;-69
2021/08/03 03:09:21;;;;;;;3.47;1.73;;;11.50;99.90;;;;;;4955202;29;20539;-69
2021/08/03 03:11:48;;;;;;;2.63;1.80;;;11.60;99.90;;;;;;4955846;29;20070;-72
2021/08/03 03:14:15;;;;;;;5.00;2.30;;;11.50;99.90;;;;;;4954832;29;20031;-69
2021/08/03 03:16:42;;;;;;;1.85;1.73;;;11.50;99.90;;;;;;4955782;29;20027;-70
2021/08/03 03:19:09;;;;;;;3.60;2.10;;;11.50;99.90;;;;;;4955879;29;20485;-71
2021/08/03 03:21:35;;;;;;;5.18;1.95;;;11.50;99.90;;;;;;4954571;29;20031;-69
2021/08/03 03:24:02;;;;;;;3.42;1.80;;;11.50;99.90;;;;;;4938377;29;20098;-69
2021/08/03 03:26:32;;;;;;;4.28;2.13;;;11.50;99.90;;;;;;4938478;29;20175;-69
2021/08/03 03:29:00;;;;;;;2.78;1.80;;;11.60;99.90;;;;;;4937310;29;20494;-70
2021/08/03 03:31:30;;;;;;;4.18;1.92;;;11.60;99.90;;;;;;4955254;29;20027;-69
2021/08/03 03:33:59;;;;;;;2.75;1.58;;;11.60;99.90;;;;;;4955884;29;20051;-76
2021/08/03 03:36:27;;;;;;;4.35;2.30;;;11.60;99.90;;;;;;4954836;29;20106;-73
2021/08/03 03:38:54;;;;;;;3.95;1.95;;;11.60;99.90;;;;;;4955437;29;20027;-70
2021/08/03 03:41:23;;;;;;;2.83;1.67;;;11.60;99.90;;;;;;4937821;29;20393;-69
2021/08/03 03:43:48;;;;;;;5.55;1.92;;;11.70;99.90;;;;;;4954452;29;20069;-70
2021/08/03 03:46:16;;;;;;;3.25;1.70;;;11.70;99.90;;;;;;4954941;29;20047;-70
2021/08/03 03:48:48;;;;;;;4.55;1.92;;;11.70;99.90;;;;;;4955292;29;20037;-69
2021/08/03 03:51:21;;;;;;;4.15;1.83;;;11.70;99.90;;;;;;4937082;29;20569;-70
2021/08/03 03:53:50;;;;;;;2.97;1.92;;;11.70;99.90;;;;;;4955316;29;20096;-69
2021/08/03 03:56:17;;;;;;;3.88;1.92;;;11.80;99.90;;;;;;4954182;29;20383;-70
2021/08/03 03:58:49;;;;;;;3.67;2.05;;;11.80;99.90;;;;;;4955298;29;20066;-76
2021/08/03 04:01:19;;;;;;;3.75;1.90;;;11.80;99.90;;;;;;4954518;29;20098;-70
2021/08/03 04:03:45;;;;;;;2.45;2.03;;;11.80;99.90;;;;;;4954476;29;20469;-70
2021/08/03 04:06:12;;;;;;;3.45;1.73;;;11.80;99.90;;;;;;4955004;29;20038;-69
2021/08/03 04:08:38;;;;;;;3.08;2.22;;;11.80;99.90;;;;;;4955156;29;20510;-74
2021/08/03 04:11:04;;;;;;;3.80;1.88;;;11.80;99.90;;;;;;4954383;29;20087;-70
2021/08/03 04:13:30;;;;;;;4.72;2.22;;;11.80;99.90;;;;;;4954663;29;20035;-70
2021/08/03 04:15:56;;;;;;;2.63;2.17;;;11.80;99.90;;;;;;4937756;29;20030;-69
2021/08/03 04:18:22;;;;;;;3.90;2.28;;;11.80;99.90;;;;;;4936869;29;20023;-75
2021/08/03 04:20:47;;;;;;;1.90;1.70;;;11.80;99.90;;;;;;4954836;29;20028;-70
2021/08/03 04:23:13;;;;;;;5.57;1.90;;;11.80;99.90;;;;;;4955012;29;20051;-71
2021/08/03 04:25:40;;;;;;;2.88;1.77;;;11.90;99.90;;;;;;4936877;29;20048;-72
2021/08/03 04:28:07;;;;;;;3.03;1.92;;;11.90;99.90;;;;;;4954709;29;20039;-70
2021/08/03 04:30:33;;;;;;;6.50;2.30;;;11.90;99.90;;;;;;4937153;29;20020;-71
2021/08/03 04:32:58;;;;;;;3.65;2.00;;;11.90;99.90;;;;;;4954181;29;20129;-74
2021/08/03 04:35:24;;;;;;;3.33;1.92;;;11.90;99.90;;;;;;4954398;29;20027;-70
2021/08/03 04:37:50;;;;;;;2.30;1.88;;;11.90;99.90;;;;;;4954419;28;20621;-69
2021/08/03 04:40:17;;;;;;;4.18;2.03;;;11.90;99.90;;;;;;4952417;28;20032;-73
2021/08/03 04:42:43;;;;;;;2.85;1.90;;;11.90;99.90;;;;;;4961761;28;20094;-69
2021/08/03 04:45:10;;;;;;;3.58;1.90;;;11.90;99.90;;;;;;4962866;28;20037;-70
2021/08/03 04:47:46;;;;;;;3.63;2.08;;;11.90;99.90;;;;;;4957200;28;20074;-70
2021/08/03 04:50:14;;;;;;;3.42;2.15;;;11.90;99.90;;;;;;4945837;29;20031;-69
2021/08/03 04:52:40;;;;;;;4.88;2.00;;;11.90;99.90;;;;;;4956585;29;20460;-68
2021/08/03 04:55:06;;;;;;;2.53;1.90;;;11.90;99.90;;;;;;4958576;28;20033;-71
2021/08/03 04:57:32;;;;;;;3.00;2.03;;;11.90;99.90;;;;;;4959635;28;20023;-74
2021/08/03 04:59:58;;;;;;;3.53;2.03;;;12.00;99.90;;;;;;4956119;29;20539;-71
2021/08/03 05:02:23;;;;;;;3.78;2.00;;;12.00;99.90;;;;;;4957872;29;20380;-74
2021/08/03 05:04:49;;;;;;;4.82;2.33;;;12.10;99.90;;;;;;4958194;29;20462;-71
2021/08/03 05:07:14;;;;;;;4.13;2.65;;;12.20;99.90;;;;;;4957109;29;20524;-74
2021/08/03 05:09:40;;;;;;;2.70;2.00;;;12.40;99.90;;;;;;4956429;29;20023;-69
2021/08/03 05:12:05;;;;;;;5.20;2.30;;;12.50;99.90;;;;;;4960714;28;20031;-70
2021/08/03 05:14:31;;;;;;;3.72;2.10;;;12.70;99.90;;;;;;4956958;29;20119;-69
2021/08/03 05:16:57;;;;;;;5.22;2.13;;;12.90;99.90;;;;;;4964564;28;20026;-70
2021/08/03 05:19:22;;;;;;;4.82;2.00;;;13.00;99.90;;;;;;4966580;28;20102;-70
2021/08/03 05:21:48;;;;;;;4.93;2.45;;;13.20;99.90;;;;;;4952106;29;20063;-74
2021/08/03 05:24:13;;;;;;;3.60;2.63;;;13.30;99.90;;;;;;4956838;29;20026;-70
2021/08/03 05:26:39;;;;;;;4.68;3.05;;;13.40;99.90;;;;;;4957002;29;20040;-69
2021/08/03 05:29:04;;;;;;;4.47;2.60;;;13.40;99.90;;;;;;4957454;28;20484;-68
2021/08/03 05:31:30;;;;;;;5.18;2.88;;;13.40;99.90;;;;;;4957199;29;20191;-70
2021/08/03 05:33:55;;;;;;;4.65;3.00;;;13.50;99.90;;;;;;4957956;28;20099;-72
2021/08/03 05:36:21;;;;;;;2.80;2.55;;;13.60;99.90;;;;;;4955921;29;20038;-72
2021/08/03 05:38:47;;;;;;;5.45;3.30;;;13.70;99.90;;;;;;4957182;29;20480;-71
2021/08/03 05:41:14;;;;;;;6.50;3.33;;;14.00;99.90;;;;;;4940012;29;20030;-82
2021/08/03 05:43:40;;;;;;;4.57;2.88;;;14.20;99.90;;;;;;4956437;29;20106;-70
2021/08/03 05:46:06;;;;;;;5.05;2.83;;;14.30;99.90;;;;;;4974240;28;20130;-72
2021/08/03 05:48:32;;;;;;;6.32;3.30;;;14.40;99.90;;;;;;4974455;28;20038;-72
2021/08/03 05:50:57;;;;;;;5.40;3.13;;;14.50;99.90;;;;;;4975790;28;20105;-74
2021/08/03 05:53:25;;;;;;;4.97;3.17;;;14.50;99.90;;;;;;4975941;28;20057;-74
2021/08/03 05:55:50;;;;;;;3.65;3.28;;;14.50;99.90;;;;;;4976071;28;20139;-78
2021/08/03 05:58:16;;;;;;;7.60;4.38;;;14.60;99.90;;;;;;4975975;28;20035;-71
2021/08/03 06:00:43;;;;;;;4.97;2.90;;;14.60;99.90;;;;;;4976461;28;20411;-76
2021/08/03 06:03:10;;;;;;;6.97;2.75;;;14.60;99.90;;;;;;4957307;28;20178;-76
2021/08/03 06:05:37;;;;;;;4.22;2.78;;;14.70;99.90;;;;;;4960217;28;20052;-80
2021/08/03 06:08:07;;;;;;;3.90;2.58;;;14.70;99.90;;;;;;4957637;28;20030;-72
2021/08/03 06:10:36;;;;;;;3.15;2.67;;;14.70;99.90;;;;;;4958146;28;20098;-70
2021/08/03 06:13:02;;;;;;;9.13;2.95;;;14.70;99.90;;;;;;4956711;29;20086;-70
2021/08/03 06:15:30;;;;;;;4.22;2.70;;;14.80;99.90;;;;;;4939444;29;20023;-71
2021/08/03 06:18:19;;;;;;;3.80;2.80;;;14.70;99.90;;;;;;4957799;28;20027;-71
2021/08/03 06:20:48;;;;;;;4.68;3.10;;;14.80;99.90;;;;;;4964931;28;20058;-75
2021/08/03 06:23:15;;;;;;;5.25;3.33;;;14.90;99.90;;;;;;4956857;29;20392;-84
2021/08/03 06:25:40;;;;;;;4.57;3.00;;;14.90;99.90;;;;;;4939654;29;20105;-82
2021/08/03 06:28:07;;;;;;;3.92;3.15;;;14.90;99.90;;;;;;4940924;29;20500;-85
2021/08/03 06:30:36;;;;;;;3.95;2.70;;;14.90;99.90;;;;;;4939714;29;20055;-88
2021/08/03 06:33:02;;;;;;;5.50;3.05;;;15.00;99.90;;;;;;4939322;29;20403;-87
2021/08/03 06:35:28;;;;;;;4.82;3.15;;;15.00;99.90;;;;;;4939675;29;20016;-71
2021/08/03 06:37:54;;;;;;;5.32;2.53;;;15.00;99.90;;;;;;4957078;28;20472;-71
2021/08/03 06:40:19;;;;;;;4.07;2.65;;;15.10;99.90;;;;;;4967964;28;20042;-71
2021/08/03 06:43:06;;;;;;;5.97;2.65;;;15.20;99.90;;;;;;4975850;28;20026;-71
2021/08/03 06:45:33;;;;;;;3.90;2.63;;;15.20;99.90;;;;;;4959344;28;20027;-71
2021/08/03 06:48:18;;;;;;;6.05;2.97;;;15.20;99.90;;;;;;4976040;28;20031;-74
2021/08/03 06:51:08;;;;;;;3.10;2.50;;;15.30;99.90;;;;;;4975793;28;20104;-71
2021/08/03 06:53:37;;;;;;;5.43;2.97;;;15.40;99.90;;;;;;4974893;28;20085;-72
2021/08/03 06:56:04;;;;;;;5.05;3.30;;;15.40;99.90;;;;;;4975457;28;20023;-73
2021/08/03 06:58:50;;;;;;;5.93;3.47;;;15.50;99.90;;;;;;4975704;28;20109;-74
2021/08/03 07:01:22;;;;;;;4.65;3.00;;;15.60;99.90;;;;;;4974905;28;20045;-71
2021/08/03 07:03:54;;;;;;;;;;;15.60;99.90;;;;;;4975448;28;20114;-73
2021/08/03 07:06:20;;;;;;;5.60;3.03;;;15.70;99.90;;;;;;4974639;28;19910;-72
2021/08/03 07:08:47;;;;;;;5.45;3.30;;;15.70;99.90;;;;;;4975467;28;20105;-74
2021/08/03 07:11:14;;;;;;;4.65;3.20;;;15.80;99.90;;;;;;4975415;28;20077;-72
2021/08/03 07:13:41;;;;;;;7.38;3.60;;;15.80;99.90;;;;;;4974945;28;20042;-72
2021/08/03 07:16:07;;;;;;;4.80;3.10;;;15.90;99.90;;;;;;4975343;28;20457;-71
2021/08/03 07:18:34;;;;;;;4.03;3.35;;;15.90;99.90;;;;;;4975169;28;20054;-72
2021/08/03 07:20:59;;;;;;;5.47;3.28;;;15.90;99.90;;;;;;4974689;28;20023;-72
2021/08/03 07:23:25;;;;;;;7.32;3.80;;;15.90;99.90;;;;;;4957640;28;20031;-71
2021/08/03 07:25:51;;;;;;;4.78;3.63;;;15.90;99.90;;;;;;4975313;28;20059;-71
2021/08/03 07:28:18;;;;;;;4.65;3.70;;;15.90;99.90;;;;;;4974123;28;20566;-72
2021/08/03 07:30:44;;;;;;;4.82;4.00;;;15.90;99.90;;;;;;4957689;28;20126;-72
2021/08/03 07:33:14;;;;;;;5.57;4.00;;;15.90;99.90;;;;;;4975243;28;20136;-72
2021/08/03 07:35:41;;;;;;;6.18;3.83;;;15.90;99.90;;;;;;4957242;28;20117;-71
2021/08/03 07:38:07;;;;;;;4.75;4.10;;;15.90;99.90;;;;;;4975130;28;20038;-72
2021/08/03 07:40:33;;;;;;;6.32;4.50;;;16.00;99.90;;;;;;4974670;28;20026;-74
2021/08/03 07:42:59;;;;;;;7.50;4.90;;;16.00;99.90;;;;;;4974179;28;20082;-73
2021/08/03 07:45:25;;;;;;;7.95;4.88;;;16.10;99.90;;;;;;4974644;28;20037;-71
2021/08/03 07:47:50;;;;;;;5.78;4.65;;;16.20;99.90;;;;;;4957588;28;20034;-72
2021/08/03 07:50:16;;;;;;;6.28;4.63;;;16.30;99.90;;;;;;4956433;28;20021;-72
2021/08/03 07:52:41;;;;;;;5.80;4.70;;;16.60;99.90;;;;;;4974641;28;20066;-73
2021/08/03 07:55:07;;;;;;;6.72;4.93;;;16.80;99.90;;;;;;4957475;28;20070;-72
2021/08/03 07:57:33;;;;;;;6.88;5.10;;;17.10;99.90;;;;;;4973834;28;20480;-71
2021/08/03 07:59:58;;;;;;;6.10;4.88;;;17.40;99.90;;;;;;4974410;28;20089;-72
2021/08/03 08:02:24;;;;;;;7.15;5.47;;;17.70;99.90;;;;;;4973528;28;20089;-72
2021/08/03 08:04:50;;;;;;;12.38;6.43;;;17.90;99.90;;;;;;4957168;28;20022;-73
2021/08/03 08:07:15;;;;;;;10.45;5.75;;;18.00;99.90;;;;;;4974361;28;20038;-72
2021/08/03 08:09:41;;;;;;;10.15;6.15;;;18.00;99.90;;;;;;4973811;28;20031;-71
2021/08/03 08:12:06;;;;;;;9.48;6.60;;;17.90;99.90;;;;;;4974689;28;20027;-71
2021/08/03 08:14:34;;;;;;;7.45;6.65;;;17.80;99.90;;;;;;4973927;28;20098;-72
2021/08/03 08:17:01;;;;;;;10.40;8.35;;;17.70;99.90;;;;;;4974187;28;20029;-72
2021/08/03 08:19:27;;;;;;;11.20;8.95;;;17.70;99.90;;;;;;4974188;28;20023;-74
2021/08/03 08:21:52;;;;;;;11.80;9.30;;;17.70;99.90;;;;;;4974641;28;20059;-72
2021/08/03 08:24:18;;;;;;;12.63;9.88;;;17.70;99.90;;;;;;4973637;28;20028;-72
2021/08/03 08:26:45;;;;;;;10.07;7.75;;;17.70;99.90;;;;;;4957028;28;20432;-72
2021/08/03 08:29:10;;;;;;;8.60;7.70;;;17.60;99.90;;;;;;4956833;28;20038;-71
2021/08/03 08:31:38;;;;;;;9.60;7.82;;;17.60;99.90;;;;;;4973910;28;20139;-73
2021/08/03 08:34:04;;;;;;;9.95;7.38;;;17.70;99.90;;;;;;4974556;28;20022;-73
2021/08/03 08:36:29;;;;;;;10.50;8.25;;;17.80;99.90;;;;;;4956803;28;20027;-71
2021/08/03 08:38:55;;;;;;;9.38;7.53;;;17.90;99.90;;;;;;4973849;28;20139;-72
2021/08/03 08:41:21;;;;;;;10.20;8.13;;;18.10;99.90;;;;;;4973870;28;20106;-72
2021/08/03 08:43:46;;;;;;;12.80;9.48;;;18.30;99.90;;;;;;4974292;28;20035;-72
2021/08/03 08:46:12;;;;;;;10.52;9.40;;;18.60;99.90;;;;;;4956014;28;20030;-72
2021/08/03 08:48:38;;;;;;;10.60;9.50;;;18.80;99.90;;;;;;4974347;28;20043;-71
2021/08/03 08:51:06;;;;;;;10.70;8.68;;;19.00;99.90;;;;;;4974006;28;20019;-72
2021/08/03 08:53:34;;;;;;;10.73;9.05;;;19.10;99.90;;;;;;4973303;28;20062;-71
2021/08/03 08:56:00;;;;;;;13.07;8.95;;;19.20;99.90;;;;;;4957035;28;20015;-72
2021/08/03 08:58:25;;;;;;;9.32;8.00;;;19.30;99.90;;;;;;4956561;28;20384;-72
2021/08/03 09:00:51;;;;;;;11.27;7.80;;;19.40;99.90;;;;;;4973284;28;20051;-73
2021/08/03 09:03:17;;;;;;;8.90;7.90;;;19.40;99.90;;;;;;4956704;28;20023;-72
2021/08/03 09:05:42;;;;;;;11.15;7.55;;;19.40;99.90;;;;;;4973271;28;20027;-72
2021/08/03 09:08:10;;;;;;;10.13;8.45;;;19.40;99.90;;;;;;4974047;28;20042;-73
2021/08/03 09:10:37;;;;;;;9.18;7.68;;;19.30;99.90;;;;;;4956537;28;20468;-72
2021/08/03 09:13:29;;;;;;;11.00;8.05;;;19.20;99.90;;;;;;4956305;28;20078;-72
2021/08/03 09:15:59;;;;;;;9.52;7.80;;;19.30;99.90;;;;;;4971519;28;20392;-72
2021/08/03 09:18:29;;;;;;;9.95;7.68;;;19.20;99.90;;;;;;4973652;28;20054;-73
2021/08/03 09:20:58;;;;;;;10.48;7.85;;;19.20;99.90;;;;;;4973441;28;20444;-72
2021/08/03 09:23:40;;;;;;;9.57;7.97;;;19.50;99.90;;;;;;4973667;28;20468;-70
2021/08/03 09:26:07;;;;;;;9.18;7.40;;;19.80;99.90;;;;;;4973893;28;20022;-71
2021/08/03 09:29:00;;;;;;;11.30;7.80;;;19.90;99.90;;;;;;4976417;28;20074;-71
2021/08/03 09:31:26;;;;;;;9.77;6.55;;;20.00;99.90;;;;;;4959749;28;20050;-73
2021/08/03 09:33:52;;;;;;;12.25;7.97;;;20.20;99.90;;;;;;4976678;28;20487;-72
2021/08/03 09:36:17;;;;;;;11.15;7.78;;;20.50;99.90;;;;;;4959704;28;20425;-75
2021/08/03 09:38:43;;;;;;;9.30;7.95;;;20.70;99.90;;;;;;4977615;28;20027;-74
2021/08/03 09:41:09;;;;;;;11.68;8.23;;;21.10;99.90;;;;;;4976421;28;20042;-73
2021/08/03 09:43:36;;;;;;;9.88;8.13;;;21.30;99.90;;;;;;4977005;28;20019;-72
2021/08/03 09:46:02;;;;;;;10.48;8.13;;;21.50;99.90;;;;;;4977232;28;20074;-75
2021/08/03 09:48:30;;;;;;;8.85;7.70;;;21.60;99.90;;;;;;4975973;28;20085;-73
2021/08/03 09:51:07;;;;;;;12.95;9.10;;;21.80;99.90;;;;;;4959686;28;20023;-74
2021/08/03 09:53:46;;;;;;;13.90;8.43;;;22.00;99.90;;;;;;4976517;28;20073;-74
2021/08/03 09:56:16;;;;;;;12.77;8.63;;;22.20;99.90;;;;;;4976260;28;20022;-73
2021/08/03 09:58:54;;;;;;;13.13;8.93;;;22.30;99.90;;;;;;4977006;28;20027;-75
2021/08/03 10:01:40;;;;;;;17.70;10.15;;;22.60;99.90;;;;;;4959236;28;20054;-72
2021/08/03 10:04:13;;;;;;;14.05;10.32;;;22.70;99.90;;;;;;4976323;28;20045;-73
2021/08/03 10:06:40;;;;;;;11.52;9.43;;;22.60;99.70;;;;;;4976893;28;20034;-73
2021/08/03 10:09:08;;;;;;;10.70;9.43;;;22.70;99.80;;;;;;4976112;28;20476;-72
2021/08/03 10:11:34;;;;;;;12.18;8.55;;;22.70;99.90;;;;;;4976603;28;20058;-72
2021/08/03 10:14:00;;;;;;;11.73;10.10;;;22.90;99.90;;;;;;4959309;28;20035;-73
2021/08/03 10:16:26;;;;;;;12.70;10.32;;;23.10;99.90;;;;;;4975808;28;20018;-73
2021/08/03 10:18:58;;;;;;;14.63;11.02;;;23.20;99.90;;;;;;4976698;28;20026;-72
2021/08/03 10:21:32;;;;;;;11.80;10.55;;;23.30;99.90;;;;;;4976133;28;20019;-72
2021/08/03 10:24:13;;;;;;;17.20;11.82;;;23.30;99.40;;;;;;4975875;28;20042;-72
2021/08/03 10:26:39;;;;;;;14.48;10.80;;;23.40;99.40;;;;;;4976343;28;20023;-73
2021/08/03 10:29:25;;;;;;;13.93;10.57;;;23.40;99.30;;;;;;4959384;28;20500;-73
2021/08/03 10:31:52;;;;;;;15.23;10.90;;;23.50;99.30;;;;;;4975331;28;20379;-73
2021/08/03 10:34:42;;;;;;;15.63;10.90;;;23.60;98.60;;;;;;4976047;28;20019;-73
2021/08/03 10:37:09;;;;;;;15.93;12.50;;;23.70;98.30;;;;;;4958268;28;20029;-77
2021/08/03 10:39:48;;;;;;;14.30;12.90;;;23.90;98.20;;;;;;4975977;28;20027;-72
2021/08/03 10:42:14;;;;;;;17.38;15.48;;;24.20;98.40;;;;;;4958194;28;20077;-73
2021/08/03 10:44:49;;;;;;;16.88;15.07;;;24.40;97.50;;;;;;4958128;28;20113;-73
2021/08/03 10:47:33;;;;;;;15.55;14.05;;;24.60;97.10;;;;;;4975826;28;20094;-74
2021/08/03 10:50:07;;;;;;;18.15;16.25;;;24.70;97.20;;;;;;4958332;28;20019;-73
2021/08/03 10:52:46;;;;;;;18.33;16.60;;;24.70;96.50;;;;;;4957736;28;20065;-73
2021/08/03 10:55:30;;;;;;;17.85;15.43;;;24.90;96.80;;;;;;4975571;28;20089;-73
2021/08/03 10:58:18;;;;;;;16.85;15.15;;;25.00;96.40;;;;;;4975696;28;20027;-73
2021/08/03 11:00:46;;;;;;;17.92;15.52;;;25.00;96.20;;;;;;4958292;28;20051;-72
2021/08/03 11:03:30;;;;;;;16.40;14.15;;;25.00;95.10;;;;;;4957924;28;20061;-72
2021/08/03 11:06:16;;;;;;;17.15;14.80;;;24.80;95.90;;;;;;4957629;28;20030;-72
2021/08/03 11:08:42;;;;;;;17.50;14.80;;;24.90;96.10;;;;;;4944932;28;20042;-73
2021/08/03 11:11:24;;;;;;;15.90;14.32;;;24.80;96.40;;;;;;4957847;28;20031;-73
2021/08/03 11:13:51;;;;;;;16.02;14.48;;;24.70;96.40;;;;;;4974924;28;20101;-73
2021/08/03 11:16:22;;;;;;;16.42;14.52;;;24.60;96.20;;;;;;4974855;28;20107;-76
2021/08/03 11:18:51;;;;;;;15.60;13.98;;;24.40;96.30;;;;;;4958060;28;20030;-73
2021/08/03 11:21:18;;;;;;;16.23;14.70;;;24.10;96.70;;;;;;4957162;28;20035;-73
2021/08/03 11:24:11;;;;;;;17.15;14.98;;;23.90;97.50;;;;;;4975228;28;20110;-73
2021/08/03 11:26:53;;;;;;;17.77;15.18;;;23.70;97.70;;;;;;4974421;28;20027;-73
2021/08/03 11:29:23;;;;;;;15.93;14.32;;;23.50;97.90;;;;;;4974875;28;20026;-73
2021/08/03 11:31:51;;;;;;;19.03;15.23;;;23.30;98.40;;;;;;4975255;28;20097;-74
2021/08/03 11:34:25;;;;;;;19.30;15.63;;;23.10;98.90;;;;;;4974162;28;20026;-73
2021/08/03 11:36:59;;;;;;;17.05;15.35;;;22.80;99.40;;;;;;4975185;28;20035;-73
2021/08/03 11:39:31;;;;;;;20.17;15.80;;;22.50;99.80;;;;;;4974839;28;20506;-73
2021/08/03 11:41:57;;;;;;;20.27;16.25;;;22.20;99.90;;;;;;4957167;28;20114;-73
2021/08/03 11:44:23;;;;;;;20.58;16.08;;;21.90;99.90;;;;;;4957275;28;20115;-73
2021/08/03 11:47:07;;;;;;;17.83;15.10;;;21.60;99.90;;;;;;4957823;28;20030;-74
2021/08/03 11:49:36;;;;;;;16.63;14.93;;;21.30;99.90;;;;;;4973582;28;20034;-73
2021/08/03 11:52:06;;;;;;;16.48;14.05;;;21.10;99.90;;;;;;4957606;28;20555;-72
2021/08/03 11:54:32;;;;;;;19.35;15.18;;;21.00;99.90;;;;;;4974007;28;20471;-74
2021/08/03 11:56:57;;;;;;;17.55;15.55;;;20.70;99.90;;;;;;4974793;28;20086;-72
2021/08/03 11:59:30;;;;;;;17.83;15.93;;;20.60;99.90;;;;;;4956937;28;20479;-74
2021/08/03 12:01:56;;;;;;;21.20;16.33;;;20.40;99.90;;;;;;4973768;28;20480;-73
2021/08/03 12:04:22;;;;;;;18.75;16.45;;;20.20;99.90;;;;;;4974576;28;20089;-74
2021/08/03 12:06:50;;;;;;;18.77;15.90;;;20.10;99.90;;;;;;4974848;28;20034;-72
2021/08/03 12:09:18;;;;;;;16.48;14.80;;;20.00;99.90;;;;;;4973523;28;20022;-73
2021/08/03 12:11:45;;;;;;;17.58;15.10;;;19.90;99.90;;;;;;4974427;28;20031;-72
2021/08/03 12:14:12;;;;;;;17.85;15.93;;;19.80;99.90;;;;;;4974616;28;20034;-72
2021/08/03 12:16:42;;;;;;;19.00;16.35;;;19.70;99.90;;;;;;4973949;28;20027;-72
2021/08/03 12:19:35;;;;;;;18.33;15.38;;;19.60;99.90;;;;;;4974741;28;20427;-73
2021/08/03 12:22:04;;;;;;;16.15;14.55;;;19.60;99.90;;;;;;4974566;28;20490;-72
2021/08/03 12:24:30;;;;;;;18.40;15.95;;;19.50;99.90;;;;;;4956338;28;20363;-73
2021/08/03 12:27:11;;;;;;;16.65;13.95;;;19.50;99.90;;;;;;4957321;28;20050;-73
2021/08/03 12:29:36;;;;;;;17.27;14.10;;;19.50;99.90;;;;;;4956481;28;20041;-73
2021/08/03 12:32:02;;;;;;;14.90;13.48;;;19.40;99.90;;;;;;4974257;28;20266;-72
2021/08/03 12:34:36;;;;;;;17.13;13.95;;;19.40;99.90;;;;;;4974017;28;20105;-72
2021/08/03 12:37:01;;;;;;;19.65;15.07;;;19.40;99.90;;;;;;4963956;28;20035;-73
2021/08/03 12:39:37;;;;;;;15.40;13.90;;;19.40;99.90;;;;;;4946259;29;20477;-84
2021/08/03 12:42:04;;;;;;;15.18;13.55;;;19.40;99.90;;;;;;4936119;29;20062;-71
2021/08/03 12:44:32;;;;;;;18.73;14.43;;;19.40;99.90;;;;;;4953483;29;20388;-71
2021/08/03 12:47:19;;;;;;;15.80;13.68;;;19.40;99.90;;;;;;4959728;28;20042;-71
2021/08/03 12:50:01;;;;;;;18.45;14.63;;;19.30;99.90;;;;;;4948893;28;20044;-74
2021/08/03 12:52:27;;;;;;;17.10;14.95;;;19.30;99.90;;;;;;4942781;29;20118;-78
2021/08/03 12:55:01;;;;;;;19.45;17.55;;;19.30;99.90;;;;;;4936731;29;20114;-83